Time;durP1;ratioP1;P1;durP2;ratioP2;P2;SDS_P1;SDS_P2;PMS_P1;PMS_P2;Temp;Humidity;BMP_temperature;BMP_pressure;BME280_temperature;BME280_humidity;BME280_pressure;Samples;Min_cycle;Max_cycle;Signal;HPM_P1;HPM_P2
2023/01/04 00:01:14;;;;;;;1.77;1.67;;;9.80;99.90;;;;;;5012048;28;20227;-62
2023/01/04 00:03:40;;;;;;;3.03;2.20;;;9.80;99.90;;;;;;5012627;28;20640;-64
2023/01/04 00:06:08;;;;;;;1.70;1.60;;;9.90;99.90;;;;;;5014214;28;20563;-62
2023/01/04 00:08:34;;;;;;;3.83;2.93;;;9.90;99.90;;;;;;5019771;28;20188;-63
2023/01/04 00:11:01;;;;;;;4.73;2.40;;;10.00;99.90;;;;;;5015687;28;20191;-62
2023/01/04 00:13:28;;;;;;;2.50;2.23;;;10.00;99.90;;;;;;5027866;28;20318;-63
2023/01/04 00:15:54;;;;;;;10.37;2.77;;;9.90;99.90;;;;;;5028477;28;20613;-63
2023/01/04 00:18:19;;;;;;;2.00;1.80;;;9.90;99.90;;;;;;5007302;28;20214;-64
2023/01/04 00:20:45;;;;;;;2.93;2.43;;;10.00;99.90;;;;;;5014675;28;20219;-63
2023/01/04 00:23:11;;;;;;;1.73;1.63;;;9.90;99.90;;;;;;5012804;28;20230;-63
2023/01/04 00:25:40;;;;;;;3.50;1.73;;;10.00;99.90;;;;;;5012660;28;20198;-63
2023/01/04 00:28:05;;;;;;;2.67;2.30;;;9.90;99.90;;;;;;5016534;28;20183;-64
2023/01/04 00:30:31;;;;;;;5.83;3.00;;;10.00;99.90;;;;;;5012852;28;20662;-64
2023/01/04 00:32:57;;;;;;;4.37;2.33;;;10.00;99.90;;;;;;5019655;28;20202;-64
2023/01/04 00:35:23;;;;;;;5.07;3.73;;;10.10;99.90;;;;;;5018517;28;20201;-64
2023/01/04 00:37:49;;;;;;;1.80;1.70;;;10.00;99.90;;;;;;5013671;28;20192;-66
2023/01/04 00:40:15;;;;;;;4.23;2.63;;;10.00;99.90;;;;;;5013918;28;20183;-63
2023/01/04 00:42:40;;;;;;;4.10;2.70;;;10.10;99.90;;;;;;5009891;28;20228;-63
2023/01/04 00:45:06;;;;;;;5.97;3.07;;;10.20;99.90;;;;;;5034228;28;20308;-63
2023/01/04 00:47:32;;;;;;;4.77;2.40;;;10.20;99.90;;;;;;5024096;28;20217;-63
2023/01/04 00:49:58;;;;;;;2.10;1.70;;;10.20;99.90;;;;;;5013018;28;20223;-63
2023/01/04 00:52:24;;;;;;;2.13;1.63;;;10.20;99.90;;;;;;5031819;28;20551;-64
2023/01/04 00:54:49;;;;;;;1.43;1.33;;;10.20;99.90;;;;;;5012454;28;20206;-64
2023/01/04 00:57:15;;;;;;;4.80;2.37;;;10.10;99.90;;;;;;5028222;28;20237;-63
2023/01/04 00:59:40;;;;;;;2.30;2.17;;;10.10;99.90;;;;;;5007798;28;20196;-63
2023/01/04 01:02:06;;;;;;;2.60;2.40;;;10.20;99.90;;;;;;5008830;28;20303;-63
2023/01/04 01:04:32;;;;;;;2.93;2.20;;;10.20;99.90;;;;;;5025890;28;20202;-63
2023/01/04 01:06:57;;;;;;;3.43;2.03;;;10.10;99.90;;;;;;5023758;28;20197;-63
2023/01/04 01:09:23;;;;;;;2.50;2.30;;;10.10;99.90;;;;;;5016292;28;20278;-63
2023/01/04 01:11:50;;;;;;;2.87;2.37;;;10.10;99.90;;;;;;5027379;28;20278;-63
2023/01/04 01:14:18;;;;;;;3.03;2.30;;;10.20;99.90;;;;;;5015989;28;20199;-64
2023/01/04 01:16:44;;;;;;;3.83;1.97;;;10.20;99.90;;;;;;5012590;28;20224;-64
2023/01/04 01:19:10;;;;;;;2.40;2.10;;;10.20;99.90;;;;;;5030474;28;20193;-64
2023/01/04 01:21:36;;;;;;;2.47;2.27;;;10.20;99.90;;;;;;5013514;28;20222;-63
2023/01/04 01:24:02;;;;;;;2.37;2.17;;;10.20;99.90;;;;;;5011254;28;20183;-64
2023/01/04 01:26:28;;;;;;;2.57;2.37;;;10.20;99.90;;;;;;5020163;28;20192;-63
2023/01/04 01:28:54;;;;;;;1.90;1.80;;;10.20;99.90;;;;;;5018966;28;20272;-64
2023/01/04 01:31:23;;;;;;;3.20;2.90;;;10.20;99.90;;;;;;5012157;28;20666;-63
2023/01/04 01:33:50;;;;;;;2.37;2.17;;;10.30;99.90;;;;;;5027745;28;20187;-63
2023/01/04 01:36:18;;;;;;;2.20;2.00;;;10.40;99.90;;;;;;5019357;28;20237;-64
2023/01/04 01:38:44;;;;;;;1.77;1.67;;;10.40;99.90;;;;;;5012592;28;20179;-63
2023/01/04 01:41:31;;;;;;;4.53;2.60;;;10.30;99.90;;;;;;5015530;28;20560;-63
2023/01/04 01:44:05;;;;;;;1.83;1.73;;;10.30;99.90;;;;;;5022352;28;20647;-64
2023/01/04 01:46:39;;;;;;;2.53;2.33;;;10.40;99.90;;;;;;5013796;28;20178;-63
2023/01/04 01:49:17;;;;;;;1.70;1.60;;;10.40;99.90;;;;;;5015563;28;20191;-63
2023/01/04 01:51:43;;;;;;;1.93;1.83;;;10.40;99.90;;;;;;5017227;28;20212;-63
2023/01/04 01:54:19;;;;;;;3.07;2.70;;;10.30;99.90;;;;;;5014193;28;20210;-63
2023/01/04 01:56:48;;;;;;;3.60;3.00;;;10.30;99.90;;;;;;5021770;28;20183;-63
2023/01/04 01:59:15;;;;;;;4.00;3.03;;;10.40;99.90;;;;;;5022805;28;20184;-64
2023/01/04 02:01:41;;;;;;;2.90;1.93;;;10.50;99.90;;;;;;5010427;28;20684;-63
2023/01/04 02:04:08;;;;;;;2.87;2.50;;;10.50;99.90;;;;;;5010047;28;20281;-63
2023/01/04 02:06:41;;;;;;;2.77;2.50;;;10.50;99.90;;;;;;5010280;28;20545;-63
2023/01/04 02:09:08;;;;;;;2.67;2.47;;;10.50;99.90;;;;;;4993578;28;20198;-64
2023/01/04 02:11:33;;;;;;;6.20;2.40;;;10.50;99.90;;;;;;5014295;28;20288;-64
2023/01/04 02:17:16;;;;;;;2.43;2.23;;;10.60;99.90;;;;;;5008329;28;20222;-63
2023/01/04 02:20:00;;;;;;;2.67;2.50;;;10.60;99.90;;;;;;5014498;28;20183;-63
2023/01/04 02:22:57;;;;;;;3.97;2.87;;;10.70;99.90;;;;;;5015247;28;20287;-64
2023/01/04 02:25:56;;;;;;;3.93;2.73;;;10.70;99.90;;;;;;5022892;28;20219;-63
2023/01/04 02:28:31;;;;;;;6.63;2.97;;;10.70;99.90;;;;;;5016453;28;20183;-64
2023/01/04 02:31:15;;;;;;;3.10;2.87;;;10.70;99.90;;;;;;5019253;28;20229;-63
2023/01/04 02:33:59;;;;;;;5.50;3.47;;;10.70;99.90;;;;;;5021123;28;20186;-63
2023/01/04 02:36:56;;;;;;;3.23;2.93;;;10.80;99.90;;;;;;5017872;28;20183;-64
2023/01/04 02:39:32;;;;;;;3.30;2.50;;;10.80;99.90;;;;;;5019407;28;20218;-63
2023/01/04 02:42:09;;;;;;;6.50;3.03;;;10.80;99.90;;;;;;5014246;28;20207;-64
2023/01/04 02:44:56;;;;;;;2.97;2.67;;;10.80;99.90;;;;;;5015658;28;20194;-63
2023/01/04 02:50:30;;;;;;;4.60;2.53;;;11.00;99.90;;;;;;5019726;28;20329;-63
2023/01/04 02:53:02;;;;;;;3.33;3.03;;;10.90;99.90;;;;;;5014806;28;20266;-63
2023/01/04 02:55:39;;;;;;;6.00;3.42;;;10.90;99.90;;;;;;5031833;28;20206;-64
2023/01/04 02:58:35;;;;;;;3.97;3.43;;;11.10;99.90;;;;;;5021367;28;20186;-64
2023/01/04 03:07:47;;;;;;;3.00;2.80;;;11.00;99.90;;;;;;5018561;28;20209;-64
2023/01/04 03:10:25;;;;;;;6.22;3.10;;;11.00;99.90;;;;;;5003474;28;20199;-65
2023/01/04 03:12:57;;;;;;;2.70;2.50;;;11.00;99.90;;;;;;5010306;28;20278;-64
2023/01/04 03:15:30;;;;;;;5.00;2.67;;;11.00;99.90;;;;;;5018576;28;20321;-65
2023/01/04 03:18:21;;;;;;;7.32;2.67;;;11.00;99.90;;;;;;5014300;28;20184;-64
2023/01/04 03:20:49;;;;;;;6.13;2.60;;;11.10;99.90;;;;;;5018546;28;20202;-64
2023/01/04 03:37:21;;;;;;;5.50;2.85;;;11.20;99.90;;;;;;5019606;28;20690;-65
2023/01/04 03:48:49;;;;;;;2.55;2.10;;;11.30;99.90;;;;;;5013879;28;20199;-64
2023/01/04 03:51:21;;;;;;;3.65;3.17;;;11.30;99.90;;;;;;5012893;28;20167;-64
2023/01/04 03:53:56;;;;;;;3.05;2.67;;;11.30;99.90;;;;;;5015824;28;20204;-63
2023/01/04 03:56:23;;;;;;;2.75;2.55;;;11.20;99.90;;;;;;5017632;28;20182;-63
2023/01/04 03:58:50;;;;;;;6.30;2.90;;;11.30;99.90;;;;;;4995570;28;20240;-63
2023/01/04 04:01:18;;;;;;;2.90;2.67;;;11.30;99.90;;;;;;5027968;28;20179;-63
2023/01/04 04:09:12;;;;;;;2.75;2.55;;;11.30;99.90;;;;;;5021349;28;20209;-64
2023/01/04 04:11:38;;;;;;;2.75;2.35;;;11.40;99.90;;;;;;5014679;28;20195;-63
2023/01/04 04:14:03;;;;;;;2.78;2.58;;;11.40;99.90;;;;;;5012386;28;20191;-63
2023/01/04 04:16:29;;;;;;;2.30;2.10;;;11.40;99.90;;;;;;5029263;28;20195;-64
2023/01/04 04:18:55;;;;;;;5.72;3.28;;;11.40;99.90;;;;;;5013233;28;20194;-64
2023/01/04 04:21:21;;;;;;;4.38;2.45;;;11.40;99.90;;;;;;5014050;28;20222;-63
2023/01/04 04:23:47;;;;;;;3.28;2.40;;;11.50;99.90;;;;;;5013708;28;20191;-63
2023/01/04 04:26:13;;;;;;;2.22;2.03;;;11.60;99.90;;;;;;5013013;28;20655;-64
2023/01/04 04:28:39;;;;;;;2.97;2.28;;;11.60;99.90;;;;;;5003094;28;20184;-64
2023/01/04 04:31:05;;;;;;;3.83;2.25;;;11.60;99.90;;;;;;5019993;28;20209;-64
2023/01/04 04:33:31;;;;;;;3.88;2.60;;;11.60;99.90;;;;;;5017021;28;20193;-63
2023/01/04 04:35:56;;;;;;;6.05;2.38;;;11.60;99.90;;;;;;5017054;28;20265;-63
2023/01/04 04:38:22;;;;;;;4.72;1.98;;;11.60;99.90;;;;;;5010679;28;20238;-63
2023/01/04 04:43:33;;;;;;;4.80;2.03;;;11.70;99.90;;;;;;5023775;28;20213;-64
2023/01/04 04:45:59;;;;;;;2.65;1.73;;;11.60;99.90;;;;;;5017895;28;20210;-64
2023/01/04 04:48:24;;;;;;;4.70;2.33;;;11.60;99.90;;;;;;5037961;28;20195;-65
2023/01/04 04:50:50;;;;;;;2.88;2.20;;;11.70;99.90;;;;;;5013275;28;20652;-64
2023/01/04 04:53:16;;;;;;;2.70;1.83;;;11.80;99.90;;;;;;5012708;28;20660;-64
2023/01/04 04:55:42;;;;;;;4.97;2.00;;;11.80;99.90;;;;;;5013760;28;20632;-64
2023/01/04 04:58:07;;;;;;;2.33;2.22;;;11.80;99.90;;;;;;5013049;28;20256;-64
2023/01/04 05:00:33;;;;;;;2.83;1.70;;;11.80;99.90;;;;;;5011174;28;20564;-65
2023/01/04 05:02:59;;;;;;;1.85;1.75;;;11.80;99.90;;;;;;5028270;28;20223;-64
2023/01/04 05:05:26;;;;;;;1.73;1.63;;;11.90;99.90;;;;;;5027917;28;20280;-64
2023/01/04 05:07:52;;;;;;;1.80;1.70;;;11.90;99.90;;;;;;5014726;28;20183;-64
2023/01/04 05:10:17;;;;;;;1.80;1.70;;;12.00;99.90;;;;;;5012804;28;20179;-64
2023/01/04 05:12:58;;;;;;;1.60;1.50;;;12.10;99.90;;;;;;5013618;28;20216;-64
2023/01/04 05:15:35;;;;;;;2.80;1.60;;;12.10;99.90;;;;;;5009973;28;20202;-69
2023/01/04 05:18:01;;;;;;;1.92;1.50;;;12.10;99.90;;;;;;5017073;28;20549;-70
2023/01/04 05:20:27;;;;;;;1.58;1.52;;;12.20;99.90;;;;;;5013426;28;20245;-67
2023/01/04 05:22:53;;;;;;;1.73;1.63;;;12.10;99.90;;;;;;5019240;28;20230;-65
2023/01/04 05:25:18;;;;;;;1.42;1.33;;;12.10;99.90;;;;;;5007758;28;20220;-66
2023/01/04 05:27:44;;;;;;;3.10;1.67;;;12.00;99.90;;;;;;5010493;28;20199;-65
2023/01/04 05:32:59;;;;;;;3.72;2.10;;;12.00;99.90;;;;;;5019835;28;20207;-64
2023/01/04 05:35:25;;;;;;;1.85;1.75;;;12.10;99.90;;;;;;5020490;28;20281;-64
2023/01/04 05:37:51;;;;;;;1.98;1.33;;;12.00;99.90;;;;;;5017518;28;20595;-64
2023/01/04 05:40:17;;;;;;;1.40;1.30;;;11.90;99.90;;;;;;5011755;28;20191;-64
2023/01/04 05:42:42;;;;;;;1.88;1.77;;;11.90;99.90;;;;;;5010979;28;20265;-64
2023/01/04 05:45:08;;;;;;;1.95;1.67;;;11.90;99.90;;;;;;5012146;28;20188;-64
2023/01/04 05:47:35;;;;;;;2.97;1.90;;;11.90;99.90;;;;;;5009287;28;20595;-64
2023/01/04 05:50:01;;;;;;;1.92;1.55;;;12.00;99.90;;;;;;5023895;28;20244;-63
2023/01/04 05:52:27;;;;;;;1.42;1.42;;;12.00;99.90;;;;;;5030219;28;20191;-64
2023/01/04 05:54:52;;;;;;;2.85;1.70;;;12.10;99.90;;;;;;5019165;28;20207;-64
2023/01/04 05:57:18;;;;;;;2.15;1.48;;;12.00;99.90;;;;;;5014482;28;20199;-65
2023/01/04 05:59:44;;;;;;;1.25;1.17;;;12.10;99.90;;;;;;5015844;28;20180;-65
2023/01/04 06:02:15;;;;;;;2.42;1.55;;;12.10;99.90;;;;;;5015271;28;20215;-65
2023/01/04 06:04:41;;;;;;;0.90;0.90;;;12.20;99.90;;;;;;5008913;28;20184;-65
2023/01/04 06:07:06;;;;;;;1.00;1.00;;;12.20;99.90;;;;;;5037210;28;20188;-65
2023/01/04 06:09:32;;;;;;;1.75;1.65;;;12.30;99.90;;;;;;5036208;28;20189;-64
2023/01/04 06:11:58;;;;;;;1.35;1.20;;;12.40;99.90;;;;;;5020959;28;20190;-64
2023/01/04 06:14:23;;;;;;;2.95;1.92;;;12.40;99.90;;;;;;5039964;28;20670;-63
2023/01/04 06:16:49;;;;;;;1.45;1.35;;;12.40;99.90;;;;;;5026697;28;20565;-63
2023/01/04 06:19:14;;;;;;;1.30;1.20;;;12.50;99.90;;;;;;5026437;28;20686;-63
2023/01/04 06:21:40;;;;;;;1.88;0.93;;;12.50;99.90;;;;;;5024904;28;20595;-64
2023/01/04 06:24:06;;;;;;;1.10;1.00;;;12.40;99.90;;;;;;5026257;28;20198;-64
2023/01/04 06:26:31;;;;;;;2.53;0.98;;;12.40;99.90;;;;;;5007261;28;20198;-64
2023/01/04 06:28:57;;;;;;;1.40;1.17;;;12.40;99.90;;;;;;5016064;28;20187;-64
2023/01/04 06:31:23;;;;;;;1.70;1.17;;;12.40;99.90;;;;;;5029994;28;20191;-64
2023/01/04 06:33:48;;;;;;;1.40;1.30;;;12.30;99.90;;;;;;5022218;28;20245;-64
2023/01/04 06:36:14;;;;;;;1.13;1.00;;;12.20;99.90;;;;;;5017045;28;20187;-64
2023/01/04 06:38:40;;;;;;;1.88;1.50;;;12.20;99.90;;;;;;5015449;28;20183;-64
2023/01/04 06:41:05;;;;;;;1.70;1.60;;;12.20;99.90;;;;;;5029915;28;20206;-64
2023/01/04 06:43:31;;;;;;;1.05;1.05;;;12.20;99.90;;;;;;5031118;28;20637;-63
2023/01/04 06:45:56;;;;;;;1.48;1.38;;;12.20;99.90;;;;;;5014353;28;20740;-65
2023/01/04 06:48:22;;;;;;;3.88;1.30;;;12.10;99.90;;;;;;5014459;28;20183;-64
2023/01/04 06:50:48;;;;;;;2.75;1.52;;;12.20;99.90;;;;;;5017330;28;20269;-64
2023/01/04 06:53:13;;;;;;;2.50;1.33;;;12.30;99.90;;;;;;5026008;28;20198;-63
2023/01/04 06:55:39;;;;;;;1.00;0.88;;;12.40;99.90;;;;;;5027507;28;20186;-64
2023/01/04 06:58:05;;;;;;;2.80;2.60;;;12.40;99.90;;;;;;5012634;28;20188;-63
2023/01/04 07:00:30;;;;;;;2.13;1.40;;;12.40;99.90;;;;;;4994376;28;20188;-63
2023/01/04 07:02:56;;;;;;;1.30;1.20;;;12.40;99.90;;;;;;5013341;28;20301;-64
2023/01/04 07:05:22;;;;;;;2.28;1.30;;;12.30;99.90;;;;;;5014752;28;20270;-64
2023/01/04 07:07:47;;;;;;;1.13;1.13;;;12.40;99.90;;;;;;5016766;28;20246;-63
2023/01/04 07:10:13;;;;;;;4.15;1.33;;;12.40;99.90;;;;;;5010692;28;20184;-63
2023/01/04 07:12:38;;;;;;;2.80;1.98;;;12.40;99.90;;;;;;5007119;28;20198;-64
2023/01/04 07:15:05;;;;;;;1.25;1.25;;;12.30;99.90;;;;;;5021452;28;20214;-64
2023/01/04 07:17:31;;;;;;;4.22;1.38;;;12.40;99.90;;;;;;5018918;28;20193;-64
2023/01/04 07:19:56;;;;;;;1.27;1.00;;;12.40;99.90;;;;;;5013080;28;20601;-64
2023/01/04 07:22:22;;;;;;;3.85;1.05;;;12.50;99.90;;;;;;5020197;28;20218;-64
2023/01/04 07:24:48;;;;;;;1.42;1.40;;;12.50;99.90;;;;;;5013291;28;20195;-62
2023/01/04 07:27:13;;;;;;;2.55;2.15;;;12.50;99.90;;;;;;5014514;28;20237;-62
2023/01/04 07:29:42;;;;;;;1.25;1.17;;;12.40;99.90;;;;;;5029727;28;20191;-64
2023/01/04 07:32:09;;;;;;;4.35;1.55;;;12.40;99.90;;;;;;5020825;28;20195;-62
2023/01/04 07:34:37;;;;;;;2.72;2.53;;;12.40;99.90;;;;;;5014988;28;20187;-64
2023/01/04 07:37:03;;;;;;;3.17;0.98;;;12.50;99.90;;;;;;5018456;28;20199;-63
2023/01/04 07:39:29;;;;;;;0.90;0.90;;;12.50;99.90;;;;;;5014115;28;20266;-63
2023/01/04 07:41:55;;;;;;;4.93;1.33;;;12.60;99.90;;;;;;5013719;28;20310;-63
2023/01/04 07:44:20;;;;;;;1.05;1.05;;;12.70;99.90;;;;;;5016362;28;20551;-63
2023/01/04 07:46:46;;;;;;;1.77;1.20;;;12.80;99.90;;;;;;5013550;28;20223;-63
2023/01/04 07:49:14;;;;;;;1.25;1.23;;;12.70;99.90;;;;;;5028964;28;20664;-63
2023/01/04 07:51:40;;;;;;;0.90;0.90;;;12.70;99.90;;;;;;5012382;28;20573;-63
2023/01/04 07:54:06;;;;;;;1.88;1.20;;;12.60;99.90;;;;;;5013767;28;20318;-64
2023/01/04 07:56:32;;;;;;;1.23;1.08;;;12.70;99.90;;;;;;5017605;28;20183;-64
2023/01/04 07:58:58;;;;;;;1.30;1.20;;;12.60;99.90;;;;;;5012113;28;20194;-64
2023/01/04 08:01:26;;;;;;;1.70;1.02;;;12.60;99.90;;;;;;5011189;28;20234;-64
2023/01/04 08:03:52;;;;;;;2.25;1.05;;;12.70;99.90;;;;;;5013095;28;20633;-64
2023/01/04 08:06:20;;;;;;;1.23;1.10;;;12.80;99.90;;;;;;5013638;28;20190;-63
2023/01/04 08:08:46;;;;;;;2.25;1.08;;;12.70;99.90;;;;;;5032271;28;20187;-62
2023/01/04 08:11:17;;;;;;;3.00;0.93;;;12.70;99.90;;;;;;5013777;28;20183;-63
2023/01/04 08:13:43;;;;;;;3.65;1.23;;;12.60;99.90;;;;;;5016459;28;20259;-64
2023/01/04 08:16:21;;;;;;;3.17;1.30;;;12.50;99.90;;;;;;5016734;28;20214;-62
2023/01/04 08:18:48;;;;;;;1.10;1.10;;;12.50;99.90;;;;;;5019616;28;20191;-64
2023/01/04 08:21:13;;;;;;;1.30;1.20;;;12.60;99.90;;;;;;5011760;28;20641;-64
2023/01/04 08:23:39;;;;;;;1.85;1.50;;;12.60;99.90;;;;;;5021145;28;20206;-65
2023/01/04 08:26:07;;;;;;;0.77;0.77;;;12.60;99.90;;;;;;5015309;28;20663;-65
2023/01/04 08:28:33;;;;;;;2.20;1.08;;;12.70;99.90;;;;;;5013223;28;20183;-63
2023/01/04 08:31:04;;;;;;;1.88;1.40;;;12.60;99.90;;;;;;5022617;28;20193;-64
2023/01/04 08:33:30;;;;;;;2.10;1.20;;;12.60;99.90;;;;;;5008771;28;20192;-64
2023/01/04 08:36:31;;;;;;;1.15;1.05;;;12.70;99.90;;;;;;5007456;28;20191;-65
2023/01/04 08:38:59;;;;;;;1.02;0.90;;;12.70;99.90;;;;;;5012698;28;20199;-64
2023/01/04 08:41:25;;;;;;;2.95;1.45;;;12.70;99.90;;;;;;5012227;28;20187;-63
2023/01/04 08:43:51;;;;;;;3.65;2.42;;;12.70;99.90;;;;;;5012659;28;20191;-63
2023/01/04 08:46:17;;;;;;;7.15;1.42;;;12.70;99.90;;;;;;5021837;28;20197;-64
2023/01/04 08:48:42;;;;;;;1.85;1.30;;;12.70;99.90;;;;;;4995701;28;20187;-63
2023/01/04 08:51:14;;;;;;;2.45;1.10;;;12.70;99.90;;;;;;5008293;28;20215;-63
2023/01/04 08:53:41;;;;;;;1.15;1.15;;;12.80;99.90;;;;;;5026765;28;20286;-62
2023/01/04 08:56:08;;;;;;;1.27;1.17;;;12.80;99.90;;;;;;5019599;28;20191;-65
2023/01/04 08:58:35;;;;;;;1.00;1.00;;;12.80;99.90;;;;;;5016996;28;20187;-63
2023/01/04 09:01:09;;;;;;;3.50;1.40;;;12.80;99.90;;;;;;5020440;28;20183;-64
2023/01/04 09:03:36;;;;;;;1.92;1.27;;;12.90;99.90;;;;;;5007078;28;20538;-64
2023/01/04 09:06:08;;;;;;;3.10;2.42;;;13.00;99.90;;;;;;5019493;28;20652;-65
2023/01/04 09:08:35;;;;;;;0.93;0.93;;;13.10;99.90;;;;;;5015616;28;20182;-64
2023/01/04 09:11:13;;;;;;;2.22;1.23;;;13.20;99.90;;;;;;5012733;28;20318;-66
2023/01/04 09:13:39;;;;;;;2.75;1.15;;;13.20;99.90;;;;;;5017672;28;20660;-63
2023/01/04 09:16:10;;;;;;;2.17;1.30;;;13.20;99.90;;;;;;5025475;28;20544;-65
2023/01/04 09:18:37;;;;;;;2.45;1.40;;;13.30;99.90;;;;;;5016108;28;20210;-64
2023/01/04 09:21:07;;;;;;;3.47;1.88;;;13.20;99.90;;;;;;5016548;28;20187;-63
2023/01/04 09:23:34;;;;;;;1.33;1.23;;;13.30;99.90;;;;;;5016026;28;20318;-63
2023/01/04 09:26:14;;;;;;;1.13;1.13;;;13.30;99.90;;;;;;5031426;28;20194;-65
2023/01/04 09:28:40;;;;;;;1.88;1.02;;;13.30;99.90;;;;;;5015325;28;20185;-64
2023/01/04 09:31:07;;;;;;;1.52;1.10;;;13.30;99.90;;;;;;5020304;28;20663;-63
2023/01/04 09:33:33;;;;;;;3.03;1.25;;;13.20;99.90;;;;;;5021964;28;20205;-64
2023/01/04 09:36:04;;;;;;;1.95;0.90;;;13.20;99.90;;;;;;5025404;28;20186;-65
2023/01/04 09:38:30;;;;;;;0.82;0.82;;;13.20;99.90;;;;;;5043298;28;20190;-65
2023/01/04 09:41:08;;;;;;;1.90;1.42;;;13.30;99.90;;;;;;4998346;28;20631;-65
2023/01/04 09:43:45;;;;;;;2.15;1.38;;;13.20;99.90;;;;;;5025853;28;20210;-64
2023/01/04 09:46:19;;;;;;;1.25;0.85;;;13.30;99.90;;;;;;5011080;28;20208;-64
2023/01/04 09:48:48;;;;;;;1.05;1.05;;;13.20;99.90;;;;;;5015852;28;20209;-64
2023/01/04 09:51:18;;;;;;;2.00;1.30;;;13.20;99.90;;;;;;5023443;28;20263;-65
2023/01/04 09:53:50;;;;;;;2.20;1.05;;;13.30;99.90;;;;;;5022890;28;20552;-65
2023/01/04 09:56:32;;;;;;;2.70;1.05;;;13.30;99.90;;;;;;5010110;28;20229;-64
2023/01/04 09:59:14;;;;;;;1.15;1.08;;;13.30;99.90;;;;;;5014906;28;20190;-64
2023/01/04 10:01:54;;;;;;;1.30;1.20;;;13.30;99.90;;;;;;5019850;28;20213;-66
2023/01/04 10:04:31;;;;;;;1.10;1.10;;;13.30;99.90;;;;;;5024148;28;20644;-64
2023/01/04 10:06:57;;;;;;;4.03;1.67;;;13.30;99.90;;;;;;5009930;28;20189;-63
2023/01/04 10:09:23;;;;;;;3.22;1.02;;;13.20;99.90;;;;;;5017725;28;20187;-65
2023/01/04 10:12:05;;;;;;;1.30;1.10;;;13.20;99.90;;;;;;5015620;28;20954;-64
2023/01/04 10:15:08;;;;;;;1.35;1.05;;;13.20;99.90;;;;;;5018690;28;20179;-64
2023/01/04 10:17:46;;;;;;;1.40;1.02;;;13.20;99.90;;;;;;5027713;28;20657;-64
2023/01/04 10:20:17;;;;;;;1.38;1.10;;;13.20;99.90;;;;;;5018255;28;20191;-64
2023/01/04 10:22:51;;;;;;;1.30;1.15;;;13.10;99.90;;;;;;5010684;28;20215;-67
2023/01/04 10:25:33;;;;;;;1.27;1.10;;;13.10;99.90;;;;;;5015648;28;20662;-64
2023/01/04 10:28:13;;;;;;;2.88;1.25;;;13.00;99.90;;;;;;5024627;28;20188;-64
2023/01/04 10:31:08;;;;;;;1.30;1.20;;;12.90;99.90;;;;;;5013894;28;20182;-64
2023/01/04 10:33:47;;;;;;;2.88;1.27;;;12.70;99.90;;;;;;5021825;28;20711;-64
2023/01/04 10:36:27;;;;;;;1.10;1.05;;;12.80;99.90;;;;;;5021778;28;20239;-64
2023/01/04 10:39:00;;;;;;;1.65;1.55;;;12.80;99.90;;;;;;5013470;28;20183;-64
2023/01/04 10:41:29;;;;;;;1.00;0.90;;;12.90;99.90;;;;;;5024525;28;20662;-65
2023/01/04 10:44:24;;;;;;;1.35;1.25;;;13.00;99.90;;;;;;5011677;28;20199;-64
2023/01/04 10:47:18;;;;;;;1.63;1.45;;;12.90;99.90;;;;;;5014892;28;20652;-63
2023/01/04 10:49:57;;;;;;;1.13;1.00;;;12.80;99.90;;;;;;5003526;28;20254;-63
2023/01/04 10:52:49;;;;;;;1.05;1.00;;;12.80;99.90;;;;;;5020803;28;20218;-63
2023/01/04 10:55:37;;;;;;;3.17;1.00;;;12.90;99.90;;;;;;5014611;28;20253;-64
2023/01/04 10:58:46;;;;;;;2.08;1.45;;;13.10;99.90;;;;;;5024053;28;20711;-63
2023/01/04 11:01:22;;;;;;;3.00;1.20;;;13.20;99.90;;;;;;5028613;28;20180;-63
2023/01/04 11:04:08;;;;;;;1.15;1.05;;;13.20;99.90;;;;;;5014458;28;20191;-63
2023/01/04 11:06:52;;;;;;;4.07;1.20;;;13.10;99.90;;;;;;5014663;28;20179;-64
2023/01/04 11:09:34;;;;;;;1.95;1.05;;;13.10;99.90;;;;;;5025437;28;20182;-66
2023/01/04 11:12:01;;;;;;;3.03;1.40;;;13.20;99.90;;;;;;5007332;28;20179;-64
2023/01/04 11:14:27;;;;;;;2.17;1.20;;;13.10;99.90;;;;;;5014377;28;20187;-65
2023/01/04 11:17:00;;;;;;;3.35;1.13;;;13.00;99.90;;;;;;5018922;28;20674;-64
2023/01/04 11:19:27;;;;;;;1.02;0.98;;;12.90;99.90;;;;;;5016223;28;20250;-64
2023/01/04 11:21:59;;;;;;;2.45;1.40;;;12.90;99.90;;;;;;5029358;28;20272;-65
2023/01/04 11:24:29;;;;;;;1.40;1.30;;;13.00;99.90;;;;;;5017905;28;20271;-63
2023/01/04 11:26:57;;;;;;;1.08;1.00;;;13.00;99.90;;;;;;5014489;28;20180;-63
2023/01/04 11:29:31;;;;;;;1.20;1.20;;;13.10;99.90;;;;;;5013700;28;20183;-64
2023/01/04 11:32:05;;;;;;;1.63;1.50;;;13.20;99.90;;;;;;5024330;28;20241;-62
2023/01/04 11:34:51;;;;;;;3.05;1.27;;;13.10;99.90;;;;;;5013537;28;20179;-63
2023/01/04 11:37:28;;;;;;;1.38;1.10;;;13.10;99.90;;;;;;5014202;28;20537;-64
2023/01/04 11:40:18;;;;;;;3.80;2.28;;;13.00;99.90;;;;;;5022116;28;20183;-64
2023/01/04 11:42:49;;;;;;;1.10;1.10;;;13.00;99.90;;;;;;5000836;28;20297;-64
2023/01/04 11:45:26;;;;;;;1.20;1.10;;;13.00;99.90;;;;;;5023306;28;20194;-64
2023/01/04 11:47:55;;;;;;;1.15;0.93;;;13.10;99.90;;;;;;5020047;28;20648;-64
2023/01/04 11:50:50;;;;;;;3.25;1.33;;;13.10;99.90;;;;;;5006679;28;20207;-63
2023/01/04 11:53:26;;;;;;;1.20;1.10;;;13.10;99.90;;;;;;5004229;28;20211;-63
2023/01/04 11:56:06;;;;;;;1.63;1.52;;;13.20;99.90;;;;;;5013298;28;20179;-63
2023/01/04 11:58:32;;;;;;;1.85;1.20;;;13.20;99.90;;;;;;5009620;28;20191;-63
2023/01/04 12:00:59;;;;;;;1.13;1.13;;;13.10;99.90;;;;;;5017354;28;20199;-64
2023/01/04 12:03:26;;;;;;;1.40;1.30;;;13.10;99.90;;;;;;5013529;28;20211;-65
2023/01/04 12:05:52;;;;;;;2.35;1.40;;;13.20;99.90;;;;;;5014087;28;20238;-63
2023/01/04 12:08:29;;;;;;;1.50;1.40;;;13.20;99.90;;;;;;5018783;28;20215;-64
2023/01/04 12:10:56;;;;;;;1.52;1.42;;;13.10;99.90;;;;;;5015302;28;20191;-63
2023/01/04 12:13:22;;;;;;;1.30;1.00;;;13.20;99.90;;;;;;5012009;28;20187;-64
2023/01/04 12:16:09;;;;;;;4.20;1.33;;;13.30;99.90;;;;;;5013839;28;20277;-63
2023/01/04 12:18:44;;;;;;;1.45;1.35;;;13.40;99.90;;;;;;5013084;28;20186;-63
2023/01/04 12:21:25;;;;;;;3.97;1.20;;;13.50;99.90;;;;;;5021255;28;20183;-64
2023/01/04 12:23:53;;;;;;;1.38;1.38;;;13.40;99.90;;;;;;5019209;28;20199;-63
2023/01/04 12:26:22;;;;;;;1.50;1.30;;;13.40;99.90;;;;;;5026676;28;20183;-64
2023/01/04 12:28:52;;;;;;;1.10;1.10;;;13.30;99.90;;;;;;5018774;28;20183;-64
2023/01/04 12:31:18;;;;;;;1.40;1.20;;;13.30;99.90;;;;;;5022446;28;20191;-64
2023/01/04 12:33:56;;;;;;;1.50;1.40;;;13.50;99.90;;;;;;5013987;28;20595;-63
2023/01/04 12:36:36;;;;;;;2.47;1.33;;;13.50;99.90;;;;;;5029831;28;20195;-63
2023/01/04 12:39:28;;;;;;;1.20;1.13;;;13.50;99.90;;;;;;5031064;28;20705;-62
2023/01/04 12:41:59;;;;;;;0.77;0.77;;;13.50;99.90;;;;;;5029962;28;20226;-64
2023/01/04 12:44:43;;;;;;;2.72;1.00;;;13.60;99.90;;;;;;5033291;28;20658;-63
2023/01/04 12:50:12;;;;;;;1.70;0.95;;;13.50;99.90;;;;;;5029899;28;20244;-63
2023/01/04 12:52:48;;;;;;;0.85;0.85;;;13.40;99.90;;;;;;5031083;28;20678;-62
2023/01/04 12:55:40;;;;;;;1.10;1.10;;;13.30;99.90;;;;;;5029732;28;20273;-62
2023/01/04 12:58:26;;;;;;;3.65;1.58;;;13.40;99.90;;;;;;5009605;28;20198;-62
2023/01/04 13:00:52;;;;;;;1.83;1.38;;;13.30;99.90;;;;;;5026009;28;20210;-64
2023/01/04 13:03:18;;;;;;;1.25;1.17;;;13.30;99.90;;;;;;5029711;28;20567;-62
2023/01/04 13:05:59;;;;;;;1.35;1.13;;;13.40;99.90;;;;;;5030017;28;20190;-62
2023/01/04 13:08:26;;;;;;;2.58;1.35;;;13.40;99.90;;;;;;5013446;28;20191;-65
2023/01/04 13:10:56;;;;;;;10.27;5.20;;;13.40;99.90;;;;;;5029804;28;20550;-63
2023/01/04 13:13:44;;;;;;;4.55;1.75;;;13.30;99.90;;;;;;5023973;28;20226;-63
2023/01/04 13:16:43;;;;;;;2.08;1.88;;;13.30;99.90;;;;;;5026888;28;20658;-63
2023/01/04 13:19:20;;;;;;;1.70;1.60;;;13.50;99.90;;;;;;5008133;28;20325;-63
2023/01/04 13:21:47;;;;;;;3.45;1.02;;;13.50;99.90;;;;;;5012843;28;20203;-63
2023/01/04 13:24:20;;;;;;;1.23;1.23;;;13.60;99.90;;;;;;5021328;28;20612;-63
2023/01/04 13:26:49;;;;;;;1.20;1.15;;;13.60;99.90;;;;;;5012692;28;20183;-62
2023/01/04 13:29:22;;;;;;;1.50;1.40;;;13.70;99.90;;;;;;5012096;28;20190;-63
2023/01/04 13:32:15;;;;;;;2.05;1.60;;;13.70;99.90;;;;;;5010493;28;20191;-63
2023/01/04 13:34:44;;;;;;;1.70;1.60;;;13.70;99.90;;;;;;5012185;28;20194;-63
2023/01/04 13:37:09;;;;;;;2.20;2.10;;;13.70;99.90;;;;;;5011769;28;20655;-63
2023/01/04 13:39:38;;;;;;;2.58;1.90;;;13.70;99.90;;;;;;5022802;28;20229;-63
2023/01/04 13:42:11;;;;;;;3.28;1.77;;;13.80;99.90;;;;;;5011461;28;20614;-64
2023/01/04 13:45:04;;;;;;;1.65;1.55;;;13.70;99.90;;;;;;5019580;28;20231;-63
2023/01/04 13:47:35;;;;;;;2.28;2.13;;;13.70;99.90;;;;;;5028999;28;20207;-63
2023/01/04 13:50:02;;;;;;;3.50;1.70;;;13.80;99.90;;;;;;5038377;28;20186;-62
2023/01/04 13:52:28;;;;;;;5.65;2.35;;;13.80;99.90;;;;;;5015940;28;20250;-63
2023/01/04 13:55:31;;;;;;;2.05;1.95;;;13.70;99.90;;;;;;5012951;28;20222;-63
2023/01/04 13:58:02;;;;;;;3.63;2.50;;;13.70;99.90;;;;;;4980258;28;20187;-63